Time;durP1;ratioP1;P1;durP2;ratioP2;P2;SDS_P1;SDS_P2;PMS_P1;PMS_P2;Temp;Humidity;BMP_temperature;BMP_pressure;BME280_temperature;BME280_humidity;BME280_pressure;Samples;Min_cycle;Max_cycle;Signal;HPM_P1;HPM_P2
2021/12/03 00:32:59;;;;;;;;;25.00;23.00;;;;;4.66;65.02;101223.84;6217336;22;46367;-91
2021/12/03 00:35:54;;;;;;;;;23.50;20.25;;;;;4.59;65.35;101196.69;6283920;22;45246;-88
2021/12/03 00:38:35;;;;;;;;;22.00;20.00;;;;;4.63;65.24;101214.19;6213158;22;45415;-87
2021/12/03 00:41:18;;;;;;;;;23.50;19.75;;;;;4.68;65.06;101227.38;6273664;22;46665;-88
2021/12/03 00:43:54;;;;;;;;;24.00;22.25;;;;;4.78;65.02;101236.31;6310888;22;45408;-89
2021/12/03 00:53:10;;;;;;;;;53.00;43.50;;;;;4.66;65.26;101205.59;6172195;23;46294;-87
2021/12/03 01:00:09;;;;;;;;;;;;;;;;;;;;;
2021/12/03 01:02:39;;;;;;;;;34.75;31.75;;;;;4.72;64.94;101223.13;5982227;23;71674;-88
2021/12/03 01:05:20;;;;;;;;;;;;;;;;;;;;;
2021/12/03 01:08:35;;;;;;;;;;;;;;;;;;;;;
2021/12/03 06:33:13;;;;;;;;;;;;;;;;;;;;;
2021/12/03 06:35:38;;;;;;;;;5.50;3.00;;;;;5.34;63.65;101080.31;6310766;22;75429;-87
2021/12/03 06:38:13;;;;;;;;;5.00;5.00;;;;;5.44;63.37;101104.91;6284834;22;45386;-90
2021/12/03 06:40:39;;;;;;;;;4.75;3.50;;;;;5.37;63.29;101087.31;6283959;22;45424;-87
2021/12/03 06:43:05;;;;;;;;;5.75;5.00;;;;;5.34;63.48;101090.75;6283826;22;45397;-86
2021/12/03 06:45:30;;;;;;;;;3.00;3.00;;;;;5.44;63.48;101107.53;6312242;22;45241;-86
2021/12/03 06:47:56;;;;;;;;;4.00;3.00;;;;;5.39;63.43;101098.69;6311996;22;45251;-86
2021/12/03 06:50:23;;;;;;;;;4.50;2.25;;;;;5.48;63.27;101114.56;6283649;22;45165;-88
2021/12/03 06:52:56;;;;;;;;;3.00;3.00;;;;;5.34;63.28;101076.81;6283255;22;45246;-87
2021/12/03 06:55:24;;;;;;;;;5.25;3.75;;;;;5.47;63.20;101103.25;6282423;22;47401;-87
2021/12/03 06:57:50;;;;;;;;;5.25;2.25;;;;;5.35;63.35;101087.31;6283537;22;45836;-88
2021/12/03 07:00:16;;;;;;;;;2.75;2.25;;;;;5.36;63.19;101094.28;6311184;22;45335;-86
2021/12/03 07:02:41;;;;;;;;;3.75;1.50;;;;;5.39;63.19;101091.75;6283834;22;45208;-86
2021/12/03 07:05:08;;;;;;;;;3.00;2.75;;;;;5.26;63.47;101063.59;6311282;22;46024;-86
2021/12/03 07:07:34;;;;;;;;;7.00;6.00;;;;;5.45;63.16;101094.50;6283381;22;45414;-86
2021/12/03 07:10:00;;;;;;;;;2.75;2.00;;;;;5.45;63.33;101091.00;6284412;22;45422;-87
2021/12/03 07:12:26;;;;;;;;;2.50;2.50;;;;;5.38;63.28;101086.50;6280280;22;45245;-85
2021/12/03 07:14:52;;;;;;;;;6.50;3.50;;;;;5.27;63.42;101061.03;6308179;22;45223;-85
2021/12/03 07:17:17;;;;;;;;;3.00;3.00;;;;;5.42;63.20;101077.88;6309698;22;45173;-86
2021/12/03 07:19:43;;;;;;;;;2.50;2.50;;;;;5.29;63.40;101054.13;6283741;22;45216;-86
2021/12/03 07:22:11;;;;;;;;;2.75;2.75;;;;;5.43;63.11;101069.22;6311764;22;45152;-86
2021/12/03 07:24:36;;;;;;;;;2.00;2.00;;;;;5.46;63.32;101074.50;6313171;22;46020;-85
2021/12/03 07:27:02;;;;;;;;;4.00;2.00;;;;;5.28;62.84;101054.94;6285947;22;45363;-86
2021/12/03 07:29:28;;;;;;;;;3.00;3.00;;;;;5.25;63.03;101054.88;6285550;22;45251;-86
2021/12/03 07:31:54;;;;;;;;;4.00;4.00;;;;;5.25;63.03;101054.00;6288666;22;45403;-86
2021/12/03 07:34:19;;;;;;;;;5.00;2.75;;;;;5.26;63.08;101059.25;6326168;22;45457;-86
2021/12/03 07:36:45;;;;;;;;;3.00;3.00;;;;;5.25;63.42;101051.41;6330701;22;45194;-87
2021/12/03 07:39:13;;;;;;;;;4.50;2.00;;;;;5.31;62.62;101056.75;6299104;22;45157;-87
2021/12/03 07:41:40;;;;;;;;;2.00;2.00;;;;;5.27;63.41;101054.94;6282274;22;45486;-87
2021/12/03 07:44:10;;;;;;;;;4.00;2.50;;;;;5.38;63.15;101086.50;6281148;22;47908;-85
2021/12/03 07:46:36;;;;;;;;;2.00;1.75;;;;;5.43;63.36;101090.09;6283041;22;45164;-85
2021/12/03 07:49:06;;;;;;;;;1.25;1.25;;;;;5.37;63.33;101071.66;6281925;22;45192;-88
2021/12/03 07:51:32;;;;;;;;;4.50;3.00;;;;;5.26;62.88;101053.16;6292734;22;45371;-86
2021/12/03 07:53:58;;;;;;;;;2.75;2.00;;;;;5.44;62.94;101078.81;6341291;22;45266;-86
2021/12/03 07:56:24;;;;;;;;;1.00;1.00;;;;;5.32;63.23;101068.97;6313562;22;45302;-86
2021/12/03 07:58:56;;;;;;;;;2.00;2.00;;;;;5.41;63.28;101066.56;6341513;22;45370;-86
2021/12/03 08:01:29;;;;;;;;;3.75;2.25;;;;;5.46;63.18;101085.81;6313418;22;45422;-86
2021/12/03 08:12:17;;;;;;;;;;;;;;;;;;;;;
2021/12/03 08:15:22;;;;;;;;;4.50;3.00;;;;;5.35;62.48;101050.75;6127720;23;73393;-87
2021/12/03 09:51:39;;;;;;;;;6.25;5.00;;;;;5.67;63.69;101000.97;6277856;22;45181;-85
2021/12/03 09:54:28;;;;;;;;;5.50;4.00;;;;;5.69;64.08;101001.84;6251598;22;45294;-87
2021/12/03 09:57:02;;;;;;;;;6.50;4.00;;;;;5.79;64.15;101018.59;6243920;22;45973;-85
2021/12/03 10:12:55;;;;;;;;;7.75;7.00;;;;;5.51;65.58;100989.31;6277382;22;45413;-85
2021/12/03 10:15:31;;;;;;;;;6.00;5.25;;;;;5.52;66.34;100989.34;6277878;22;45292;-86
2021/12/03 10:18:07;;;;;;;;;4.50;2.75;;;;;5.49;66.46;100973.59;6247615;22;46767;-85
2021/12/03 10:20:39;;;;;;;;;3.00;3.00;;;;;5.48;66.49;100964.03;6274537;22;45297;-86
2021/12/03 10:50:39;;;;;;;;;;;;;;;;;;;;;
2021/12/03 13:30:40;;;;;;;;;3.00;3.00;;;;;5.13;73.18;100626.63;6275912;22;45469;-84
2021/12/03 15:02:10;;;;;;;;;;;;;;;;;;;;;
2021/12/03 17:46:42;;;;;;;;;;;;;;;;;;;;;
